Blaricum, Netherlands
Current Conditions -  °F | °C
As of 11:25 AM on Sunday 26 Oct 2014 (Local Time) from EHAM Reporting Station
Broken Clouds Broken Clouds  
Wind Chill: 55°   Ceiling: 3800
Heat Index: 55°   Visibility: 6mi
Dew Point: 52°   Wind: 12mph
Humidity: 88%   Direction: 200°SSW
Pressure: 30.21"   Gusts: NA
Location:  52.27°N, 5.24°E
Report Text: EHAM 260925Z 20010KT 9999 FEW027 BKN038 13/11 Q1023 NOSIG
Loading
Personal Weather Stations






























Interactive Weather Map
Tropical Storm Tracking
New forecast layout! Learn more

10-Day Weather Forecast

Advertisements
Track Severe Weather on mobile